createdAt,value
2022-10-24T00:01:18.217Z,14.99
2022-10-24T00:03:45.008Z,14.95
2022-10-24T00:06:13.253Z,14.91
2022-10-24T00:08:42.164Z,14.88
2022-10-24T00:11:17.981Z,14.84
2022-10-24T00:13:45.109Z,14.82
2022-10-24T00:16:12.343Z,14.73
2022-10-24T00:18:39.456Z,14.68
2022-10-24T00:21:07.964Z,14.65
2022-10-24T00:23:34.869Z,14.60
2022-10-24T00:26:01.626Z,14.53
2022-10-24T00:28:29.126Z,14.47
2022-10-24T00:30:55.829Z,14.54
2022-10-24T00:33:22.330Z,14.43
2022-10-24T00:35:48.692Z,14.34
2022-10-24T00:38:15.267Z,14.26
2022-10-24T00:40:42.600Z,14.18
2022-10-24T00:43:17.316Z,14.17
2022-10-24T00:45:51.170Z,14.13
2022-10-24T00:48:35.838Z,14.06
2022-10-24T00:51:21.222Z,14.03
2022-10-24T00:53:50.523Z,14.03
2022-10-24T00:56:19.420Z,14.07
2022-10-24T00:58:46.230Z,14.17
2022-10-24T01:01:13.239Z,14.20
2022-10-24T01:03:41.593Z,14.20
2022-10-24T01:06:46.968Z,14.20
2022-10-24T01:09:33.458Z,14.15
2022-10-24T01:12:14.885Z,14.09
2022-10-24T01:14:53.213Z,14.04
2022-10-24T01:18:07.591Z,14.00
2022-10-24T01:20:45.628Z,13.98
2022-10-24T01:23:36.426Z,13.99
2022-10-24T01:26:08.782Z,13.96
2022-10-24T01:29:02.073Z,13.97
2022-10-24T01:31:57.501Z,14.02
2022-10-24T01:34:30.787Z,14.01
2022-10-24T01:37:03.271Z,14.03
2022-10-24T01:39:37.202Z,13.97
2022-10-24T01:42:06.339Z,13.95
2022-10-24T01:44:41.537Z,13.90
2022-10-24T01:47:26.202Z,13.88
2022-10-24T01:49:58.597Z,13.81
2022-10-24T01:52:29.519Z,13.78
2022-10-24T01:54:56.290Z,13.70
2022-10-24T01:57:30.763Z,13.72
2022-10-24T01:59:57.341Z,13.71
2022-10-24T02:02:24.013Z,13.71
2022-10-24T02:05:16.385Z,13.68
2022-10-24T02:07:45.905Z,13.73
2022-10-24T02:10:20.901Z,13.72
2022-10-24T02:12:54.610Z,13.72
2022-10-24T02:15:26.565Z,13.73
2022-10-24T02:17:54.523Z,13.75
2022-10-24T02:20:29.983Z,13.77
2022-10-24T02:23:09.122Z,13.80
2022-10-24T02:25:40.625Z,13.81
2022-10-24T02:28:19.149Z,13.86
2022-10-24T02:30:55.900Z,13.91
2022-10-24T02:33:22.872Z,13.92
2022-10-24T02:35:50.468Z,13.94
2022-10-24T02:38:23.823Z,14.03
2022-10-24T02:40:53.600Z,14.01
2022-10-24T02:43:22.056Z,13.86
2022-10-24T02:45:51.983Z,13.95
2022-10-24T02:48:21.351Z,13.97
2022-10-24T02:50:49.139Z,14.14
2022-10-24T02:53:22.488Z,14.17
2022-10-24T02:55:48.968Z,14.07
2022-10-24T02:58:17.645Z,13.99
2022-10-24T03:00:44.114Z,13.90
2022-10-24T03:03:10.705Z,13.84
2022-10-24T03:05:37.108Z,13.76
2022-10-24T03:08:04.051Z,13.69
2022-10-24T03:10:30.420Z,13.66
2022-10-24T03:12:56.879Z,13.63
2022-10-24T03:15:23.482Z,13.59
2022-10-24T03:17:50.188Z,13.57
2022-10-24T03:20:17.263Z,13.59
2022-10-24T03:22:43.799Z,13.60
2022-10-24T03:25:10.688Z,13.54
2022-10-24T03:27:37.429Z,13.52
2022-10-24T03:30:04.662Z,13.50
2022-10-24T03:32:31.177Z,13.50
2022-10-24T03:34:57.750Z,13.51
2022-10-24T03:37:24.162Z,13.49
2022-10-24T03:39:51.371Z,13.52
2022-10-24T03:42:18.059Z,13.53
2022-10-24T03:44:45.420Z,13.50
2022-10-24T03:47:12.017Z,13.49
2022-10-24T03:49:38.689Z,13.45
2022-10-24T03:52:05.379Z,13.38
2022-10-24T03:54:32.118Z,13.33
2022-10-24T03:56:58.577Z,13.27
2022-10-24T03:59:24.987Z,13.23
2022-10-24T04:01:51.539Z,13.20
2022-10-24T04:04:18.251Z,13.23
2022-10-24T04:06:44.671Z,13.21
2022-10-24T04:09:11.200Z,13.18
2022-10-24T04:11:37.751Z,13.17
2022-10-24T04:14:04.297Z,13.15
2022-10-24T04:16:32.439Z,13.13
2022-10-24T04:18:58.899Z,13.10
2022-10-24T04:21:25.384Z,13.08
2022-10-24T04:23:52.242Z,13.20
2022-10-24T04:26:19.268Z,13.21
2022-10-24T04:28:45.802Z,13.21
2022-10-24T04:31:12.718Z,13.21
2022-10-24T04:33:39.359Z,13.21
2022-10-24T04:36:06.085Z,13.16
2022-10-24T04:38:33.608Z,13.22
2022-10-24T04:41:00.735Z,13.17
2022-10-24T04:43:28.401Z,13.15
2022-10-24T04:45:54.874Z,13.13
2022-10-24T04:48:21.766Z,13.08
2022-10-24T04:50:49.369Z,13.02
2022-10-24T04:53:16.027Z,13.01
2022-10-24T04:55:42.764Z,13.01
2022-10-24T04:58:09.179Z,13.03
2022-10-24T05:00:36.134Z,13.03
2022-10-24T05:03:04.647Z,13.04
2022-10-24T05:05:31.395Z,13.02
2022-10-24T05:07:58.148Z,13.00
2022-10-24T05:10:25.069Z,12.97
2022-10-24T05:12:52.328Z,12.98
2022-10-24T05:15:18.914Z,12.98
2022-10-24T05:17:45.344Z,13.01
2022-10-24T05:20:12.210Z,12.99
2022-10-24T05:22:40.122Z,13.01
2022-10-24T05:25:09.453Z,13.00
2022-10-24T05:27:35.961Z,13.00
2022-10-24T05:30:02.437Z,13.01
2022-10-24T05:32:29.572Z,13.04
2022-10-24T05:34:56.006Z,13.05
2022-10-24T05:37:22.680Z,13.04
2022-10-24T05:39:49.574Z,13.11
2022-10-24T05:42:16.275Z,13.14
2022-10-24T05:44:42.905Z,13.14
2022-10-24T05:47:09.831Z,13.18
2022-10-24T05:49:36.453Z,13.17
2022-10-24T05:52:03.482Z,13.16
2022-10-24T05:54:37.725Z,13.18
2022-10-24T05:57:15.471Z,13.21
2022-10-24T05:59:41.914Z,13.21
2022-10-24T06:02:16.699Z,13.22
2022-10-24T06:04:43.188Z,13.27
2022-10-24T06:07:09.652Z,13.30
2022-10-24T06:09:36.274Z,13.30
2022-10-24T06:12:05.919Z,13.32
2022-10-24T06:14:32.446Z,13.30
2022-10-24T06:17:00.461Z,13.33
2022-10-24T06:19:26.827Z,13.33
2022-10-24T06:21:53.174Z,13.38
2022-10-24T06:24:19.654Z,13.39
2022-10-24T06:26:46.060Z,13.50
2022-10-24T06:29:12.429Z,13.49
2022-10-24T06:31:38.856Z,13.63
2022-10-24T06:34:05.512Z,13.62
2022-10-24T06:36:31.926Z,13.73
2022-10-24T06:38:58.899Z,13.73
2022-10-24T06:41:28.262Z,13.82
2022-10-24T06:43:54.915Z,13.95
2022-10-24T06:46:24.838Z,13.96
2022-10-24T06:48:55.605Z,13.93
2022-10-24T06:51:23.461Z,13.93
2022-10-24T06:53:50.362Z,13.88
2022-10-24T06:56:19.043Z,13.91
2022-10-24T06:58:48.367Z,14.07
2022-10-24T07:01:19.012Z,14.01
2022-10-24T07:03:45.824Z,14.00
2022-10-24T07:06:24.531Z,14.01
2022-10-24T07:08:52.880Z,13.97
2022-10-24T07:11:19.604Z,13.93
2022-10-24T07:13:46.408Z,13.94
2022-10-24T07:16:12.916Z,13.95
2022-10-24T07:18:39.653Z,13.91
2022-10-24T07:21:08.959Z,13.86
2022-10-24T07:23:36.542Z,13.91
2022-10-24T07:26:05.987Z,13.91
2022-10-24T07:28:34.417Z,13.95
2022-10-24T07:31:01.680Z,13.97
2022-10-24T07:33:28.993Z,13.99
2022-10-24T07:35:55.529Z,14.00
2022-10-24T07:38:24.877Z,14.01
2022-10-24T07:40:51.385Z,14.00
2022-10-24T07:43:18.520Z,14.00
2022-10-24T07:45:49.108Z,14.02
2022-10-24T07:48:19.034Z,14.04
2022-10-24T07:50:48.683Z,14.04
2022-10-24T07:53:16.011Z,14.02
2022-10-24T07:55:45.165Z,13.99
2022-10-24T07:58:13.427Z,13.96
2022-10-24T08:00:44.153Z,13.96
2022-10-24T08:03:11.745Z,13.88
2022-10-24T08:05:40.360Z,13.86
2022-10-24T08:10:53.768Z,13.82
2022-10-24T08:13:20.580Z,13.82
2022-10-24T08:15:48.175Z,13.86
2022-10-24T08:18:14.745Z,13.89
2022-10-24T08:20:41.595Z,13.98
2022-10-24T08:23:16.485Z,13.84
2022-10-24T08:25:43.511Z,13.89
2022-10-24T08:28:10.167Z,13.80
2022-10-24T08:30:36.625Z,13.84
2022-10-24T08:33:03.792Z,13.89
2022-10-24T08:35:30.387Z,13.81
2022-10-24T08:37:57.130Z,13.76
2022-10-24T08:40:23.581Z,13.91
2022-10-24T08:42:50.259Z,13.91
2022-10-24T08:45:23.627Z,13.92
2022-10-24T08:48:19.164Z,13.94
2022-10-24T08:50:51.402Z,13.90
2022-10-24T08:53:36.355Z,13.88
2022-10-24T08:56:04.811Z,14.01
2022-10-24T08:58:43.224Z,14.00
2022-10-24T09:01:31.801Z,14.06
2022-10-24T09:04:03.285Z,14.11
2022-10-24T09:06:32.323Z,14.19
2022-10-24T09:09:27.624Z,14.26
2022-10-24T09:12:02.351Z,14.25
2022-10-24T09:14:34.379Z,14.27
2022-10-24T09:17:09.777Z,14.24
2022-10-24T09:19:38.418Z,14.30
2022-10-24T09:22:07.986Z,14.23
2022-10-24T09:24:49.330Z,14.29
2022-10-24T09:27:24.006Z,14.33
2022-10-24T09:29:51.205Z,14.37
2022-10-24T09:32:23.258Z,14.43
2022-10-24T09:34:50.362Z,14.47
2022-10-24T09:37:44.205Z,14.53
2022-10-24T09:40:19.608Z,14.57
2022-10-24T09:43:01.040Z,14.61
2022-10-24T09:45:43.549Z,14.61
2022-10-24T09:48:16.127Z,14.62
2022-10-24T09:50:44.652Z,14.67
2022-10-24T09:53:31.875Z,14.70
2022-10-24T09:56:02.215Z,14.61
2022-10-24T09:58:31.034Z,14.63
2022-10-24T10:01:01.018Z,14.63
2022-10-24T10:03:28.232Z,14.60
2022-10-24T10:05:57.001Z,14.60
2022-10-24T10:08:36.447Z,14.66
2022-10-24T10:11:08.889Z,14.71
2022-10-24T10:13:44.156Z,14.65
2022-10-24T10:16:22.165Z,14.71
2022-10-24T10:18:48.860Z,14.72
2022-10-24T10:21:22.489Z,14.82
2022-10-24T10:23:56.112Z,14.88
2022-10-24T10:26:28.670Z,14.98
2022-10-24T10:29:20.674Z,14.95
2022-10-24T10:31:50.010Z,15.03
2022-10-24T10:34:33.403Z,14.99
2022-10-24T10:37:25.672Z,15.04
2022-10-24T10:39:55.273Z,15.13
2022-10-24T10:42:31.467Z,15.13
2022-10-24T10:45:21.872Z,15.17
2022-10-24T10:47:56.177Z,15.24
2022-10-24T10:50:35.228Z,15.23
2022-10-24T10:53:19.068Z,15.27
2022-10-24T10:55:54.458Z,15.35
2022-10-24T10:58:48.891Z,15.43
2022-10-24T11:01:55.345Z,15.51
2022-10-24T11:04:46.200Z,15.57
2022-10-24T11:07:29.194Z,15.61
2022-10-24T11:10:19.506Z,15.55
2022-10-24T11:12:47.043Z,15.45
2022-10-24T11:15:37.486Z,15.39
2022-10-24T11:18:21.653Z,15.47
2022-10-24T11:21:00.048Z,15.29
2022-10-24T11:23:49.867Z,15.34
2022-10-24T11:26:26.786Z,15.46
2022-10-24T11:29:11.818Z,15.56
2022-10-24T11:31:43.810Z,15.61
2022-10-24T11:34:10.309Z,15.68
2022-10-24T11:36:54.832Z,15.70
2022-10-24T11:39:23.976Z,15.77
2022-10-24T11:42:15.335Z,15.69
2022-10-24T11:44:57.257Z,15.81
2022-10-24T11:47:23.977Z,15.86
2022-10-24T11:49:58.736Z,15.96
2022-10-24T11:52:31.162Z,15.91
2022-10-24T11:55:08.644Z,15.97
2022-10-24T11:57:35.972Z,15.98
2022-10-24T12:00:03.039Z,15.96
2022-10-24T12:02:41.862Z,15.94
2022-10-24T12:05:22.647Z,15.95
2022-10-24T12:07:49.210Z,15.99
2022-10-24T12:10:32.026Z,15.98
2022-10-24T12:13:01.275Z,15.96
2022-10-24T12:16:06.035Z,16.02
2022-10-24T12:18:37.906Z,16.02
2022-10-24T12:21:20.077Z,15.96
2022-10-24T12:23:59.525Z,16.03
2022-10-24T12:26:31.299Z,15.97
2022-10-24T12:29:01.357Z,15.99
2022-10-24T12:31:32.918Z,15.96
2022-10-24T12:34:17.564Z,15.97
2022-10-24T12:37:12.770Z,15.95
2022-10-24T12:39:47.827Z,15.93
2022-10-24T12:42:20.531Z,15.98
2022-10-24T12:45:33.665Z,16.00
2022-10-24T12:48:00.097Z,15.98
2022-10-24T12:50:35.630Z,16.04
2022-10-24T12:53:06.423Z,16.15
2022-10-24T12:55:39.846Z,16.13
2022-10-24T12:58:23.376Z,16.14
2022-10-24T13:00:56.157Z,16.20
2022-10-24T13:03:36.723Z,16.23
2022-10-24T13:06:17.857Z,16.26
2022-10-24T13:08:53.151Z,16.25
2022-10-24T13:11:29.043Z,16.23
2022-10-24T13:14:16.710Z,16.28
2022-10-24T13:17:08.204Z,16.29
2022-10-24T13:19:35.821Z,16.34
2022-10-24T13:22:02.667Z,16.35
2022-10-24T13:24:39.611Z,16.41
2022-10-24T13:27:10.441Z,16.48
2022-10-24T13:29:39.440Z,16.56
2022-10-24T13:32:05.876Z,16.52
2022-10-24T13:34:45.776Z,16.61
2022-10-24T13:37:32.504Z,16.65
2022-10-24T13:40:15.902Z,16.73
2022-10-24T13:42:50.960Z,16.85
2022-10-24T13:45:30.508Z,16.83
2022-10-24T13:48:02.985Z,16.90
2022-10-24T13:50:36.242Z,16.87
2022-10-24T13:53:14.324Z,16.90
2022-10-24T13:55:46.876Z,16.99
2022-10-24T13:58:25.110Z,16.96
2022-10-24T14:01:04.916Z,16.89
2022-10-24T14:03:33.204Z,16.82
2022-10-24T14:06:08.604Z,16.76
2022-10-24T14:08:50.157Z,16.74
2022-10-24T14:11:25.905Z,16.78
2022-10-24T14:14:02.622Z,16.78
2022-10-24T14:16:35.708Z,16.69
2022-10-24T14:19:25.674Z,16.72
2022-10-24T14:21:56.399Z,16.70
2022-10-24T14:24:23.396Z,16.60
2022-10-24T14:26:52.054Z,16.58
2022-10-24T14:29:31.522Z,16.49
2022-10-24T14:32:01.152Z,16.42
2022-10-24T14:34:32.588Z,16.40
2022-10-24T14:37:05.302Z,16.29
2022-10-24T14:39:33.018Z,16.31
2022-10-24T14:42:00.031Z,16.30
2022-10-24T14:44:26.705Z,16.26
2022-10-24T14:47:21.860Z,16.27
2022-10-24T14:49:48.576Z,16.35
2022-10-24T14:52:14.925Z,16.52
2022-10-24T14:55:01.916Z,16.75
2022-10-24T14:57:30.975Z,16.83
2022-10-24T14:59:59.723Z,17.11
2022-10-24T15:02:32.372Z,17.09
2022-10-24T15:05:26.511Z,17.17
2022-10-24T15:08:20.448Z,16.91
2022-10-24T15:10:45.639Z,16.88
2022-10-24T15:13:18.725Z,16.75
2022-10-24T15:16:01.523Z,16.54
2022-10-24T15:18:40.779Z,16.48
2022-10-24T15:21:15.836Z,16.31
2022-10-24T15:23:50.023Z,16.20
2022-10-24T15:26:24.447Z,16.11
2022-10-24T15:29:04.048Z,16.03
2022-10-24T15:31:32.636Z,15.93
2022-10-24T15:33:59.214Z,15.84
2022-10-24T15:36:31.417Z,15.77
2022-10-24T15:39:11.119Z,15.76
2022-10-24T15:41:38.652Z,15.67
2022-10-24T15:44:23.216Z,15.63
2022-10-24T15:46:50.048Z,15.51
2022-10-24T15:49:16.819Z,15.47
2022-10-24T15:51:48.996Z,15.40
2022-10-24T15:54:19.436Z,15.31
2022-10-24T15:56:46.352Z,15.28
2022-10-24T15:59:12.777Z,15.20
2022-10-24T16:01:44.901Z,15.14
2022-10-24T16:04:11.477Z,15.00
2022-10-24T16:06:37.897Z,14.95
2022-10-24T16:09:06.591Z,14.87
2022-10-24T16:11:32.985Z,14.81
2022-10-24T16:13:59.423Z,14.76
2022-10-24T16:16:26.056Z,14.76
2022-10-24T16:18:52.486Z,14.85
2022-10-24T16:21:21.218Z,14.67
2022-10-24T16:23:48.692Z,14.52
2022-10-24T16:26:15.912Z,14.41
2022-10-24T16:28:42.282Z,14.26
2022-10-24T16:31:09.452Z,14.26
2022-10-24T16:33:35.948Z,14.17
2022-10-24T16:36:02.436Z,14.03
2022-10-24T16:38:28.944Z,13.95
2022-10-24T16:40:55.480Z,13.83
2022-10-24T16:43:21.893Z,13.78
2022-10-24T16:45:58.016Z,13.77
2022-10-24T16:48:24.650Z,13.62
2022-10-24T16:50:51.082Z,13.56
2022-10-24T16:53:17.513Z,13.50
2022-10-24T16:55:52.191Z,13.46
2022-10-24T16:58:19.712Z,13.40
2022-10-24T17:00:47.061Z,13.33
2022-10-24T17:03:15.498Z,13.28
2022-10-24T17:05:42.188Z,13.27
2022-10-24T17:08:08.606Z,13.22
2022-10-24T17:10:35.000Z,13.19
2022-10-24T17:13:02.604Z,13.11
2022-10-24T17:15:29.034Z,13.06
2022-10-24T17:17:55.429Z,13.00
2022-10-24T17:20:21.886Z,12.94
2022-10-24T17:22:48.567Z,12.87
2022-10-24T17:25:24.503Z,12.87
2022-10-24T17:27:52.248Z,12.85
2022-10-24T17:30:25.097Z,12.79
2022-10-24T17:32:51.861Z,12.77
2022-10-24T17:35:20.706Z,12.75
2022-10-24T17:37:57.772Z,12.76
2022-10-24T17:40:34.997Z,12.75
2022-10-24T17:43:01.655Z,12.74
2022-10-24T17:45:28.366Z,12.72
2022-10-24T17:47:54.764Z,12.69
2022-10-24T17:50:21.218Z,12.62
2022-10-24T17:52:47.946Z,12.60
2022-10-24T17:58:10.732Z,12.56
2022-10-24T18:00:37.939Z,12.54
2022-10-24T18:03:04.824Z,12.55
2022-10-24T18:05:33.707Z,12.51
2022-10-24T18:08:02.696Z,12.48
2022-10-24T18:10:29.477Z,12.45
2022-10-24T18:12:56.076Z,12.40
2022-10-24T18:15:22.611Z,12.36
2022-10-24T18:17:49.306Z,12.29
2022-10-24T18:20:16.139Z,12.26
2022-10-24T18:22:43.498Z,12.30
2022-10-24T18:25:12.312Z,12.39
2022-10-24T18:27:39.177Z,12.45
2022-10-24T18:30:06.634Z,12.51
2022-10-24T18:32:33.612Z,12.54
2022-10-24T18:35:00.520Z,12.64
2022-10-24T18:37:26.966Z,13.18
2022-10-24T18:39:53.696Z,13.90
2022-10-24T18:42:32.836Z,13.96
2022-10-24T18:44:59.673Z,14.01
2022-10-24T18:47:26.633Z,14.01
2022-10-24T18:49:53.424Z,13.96
2022-10-24T18:52:36.062Z,13.89
2022-10-24T18:55:18.712Z,13.86
2022-10-24T18:57:46.108Z,13.87
2022-10-24T19:00:18.881Z,13.77
2022-10-24T19:02:50.487Z,13.76
2022-10-24T19:05:24.612Z,13.75
2022-10-24T19:07:52.182Z,13.72
2022-10-24T19:10:25.199Z,13.59
2022-10-24T19:12:52.461Z,13.46
2022-10-24T19:15:19.309Z,13.34
2022-10-24T19:17:47.688Z,13.31
2022-10-24T19:20:24.121Z,13.25
2022-10-24T19:22:51.069Z,13.16
2022-10-24T19:25:18.417Z,13.08
2022-10-24T19:27:45.009Z,13.03
2022-10-24T19:30:12.410Z,12.88
2022-10-24T19:32:38.973Z,12.81
2022-10-24T19:35:05.824Z,12.77
2022-10-24T19:37:33.582Z,12.60
2022-10-24T19:39:59.954Z,12.55
2022-10-24T19:42:26.445Z,12.41
2022-10-24T19:44:52.931Z,12.33
2022-10-24T19:47:19.950Z,12.27
2022-10-24T19:49:46.561Z,12.21
2022-10-24T19:52:13.020Z,12.17
2022-10-24T19:54:39.426Z,12.06
2022-10-24T19:57:05.957Z,12.02
2022-10-24T19:59:32.660Z,12.06
2022-10-24T20:02:03.602Z,12.07
2022-10-24T20:04:31.135Z,12.09
2022-10-24T20:06:57.634Z,12.11
2022-10-24T20:09:24.098Z,12.15
2022-10-24T20:11:50.642Z,12.20
2022-10-24T20:14:17.065Z,12.15
2022-10-24T20:16:43.694Z,12.14
2022-10-24T20:19:10.264Z,12.14
2022-10-24T20:21:36.834Z,12.15
2022-10-24T20:24:03.439Z,12.14
2022-10-24T20:26:29.927Z,12.14
2022-10-24T20:28:57.991Z,12.17
2022-10-24T20:31:34.152Z,12.10
2022-10-24T20:34:06.992Z,12.12
2022-10-24T20:36:35.509Z,12.17
2022-10-24T20:39:02.062Z,12.14
2022-10-24T20:41:29.296Z,12.03
2022-10-24T20:43:56.024Z,12.08
2022-10-24T20:46:22.853Z,12.02
2022-10-24T20:48:49.297Z,12.10
2022-10-24T20:51:18.715Z,12.12
2022-10-24T20:53:45.430Z,12.07
2022-10-24T20:56:17.566Z,12.07
2022-10-24T20:58:45.791Z,12.11
2022-10-24T21:01:15.307Z,12.09
2022-10-24T21:03:42.653Z,12.01
2022-10-24T21:06:22.975Z,12.02
2022-10-24T21:08:51.835Z,11.96
2022-10-24T21:11:21.060Z,11.93
2022-10-24T21:13:47.533Z,11.85
2022-10-24T21:16:13.973Z,11.79
2022-10-24T21:18:43.257Z,11.79
2022-10-24T21:21:11.822Z,11.68
2022-10-24T21:23:39.606Z,11.67
2022-10-24T21:26:10.605Z,11.63
2022-10-24T21:28:37.281Z,11.57
2022-10-24T21:31:10.134Z,11.50
2022-10-24T21:33:37.641Z,11.38
2022-10-24T21:36:30.490Z,11.33
2022-10-24T21:38:57.915Z,11.33
2022-10-24T21:41:25.823Z,11.25
2022-10-24T21:43:53.431Z,11.15
2022-10-24T21:46:22.938Z,11.14
2022-10-24T21:48:50.618Z,11.05
2022-10-24T21:51:21.814Z,10.94
2022-10-24T21:53:56.936Z,10.93
2022-10-24T21:56:26.198Z,10.83
2022-10-24T21:58:56.918Z,10.79
2022-10-24T22:01:26.075Z,10.78
2022-10-24T22:03:56.939Z,10.70
2022-10-24T22:06:24.982Z,10.64
2022-10-24T22:08:51.691Z,10.58
2022-10-24T22:11:21.014Z,10.53
2022-10-24T22:13:48.329Z,10.45
2022-10-24T22:16:16.393Z,10.38
2022-10-24T22:18:43.060Z,10.29
2022-10-24T22:21:22.770Z,10.24
2022-10-24T22:23:49.263Z,10.20
2022-10-24T22:26:15.882Z,10.15
2022-10-24T22:28:42.414Z,10.17
2022-10-24T22:31:12.911Z,10.12
2022-10-24T22:33:41.534Z,10.07
2022-10-24T22:36:23.383Z,10.05
2022-10-24T22:38:55.925Z,10.00
2022-10-24T22:41:23.018Z,9.94
2022-10-24T22:43:50.214Z,9.87
2022-10-24T22:47:13.951Z,9.83
2022-10-24T22:49:53.098Z,9.76
2022-10-24T22:52:20.082Z,9.69
2022-10-24T22:54:46.880Z,9.71
2022-10-24T22:57:14.714Z,9.68
2022-10-24T22:59:42.795Z,9.63
2022-10-24T23:02:12.510Z,9.67
2022-10-24T23:04:48.547Z,9.65
2022-10-24T23:07:27.568Z,9.63
2022-10-24T23:09:54.661Z,9.58
2022-10-24T23:12:22.495Z,9.51
2022-10-24T23:14:49.983Z,9.47
2022-10-24T23:17:25.479Z,9.49
2022-10-24T23:19:52.678Z,9.48
2022-10-24T23:22:30.659Z,9.52
2022-10-24T23:24:59.813Z,9.51
2022-10-24T23:27:36.251Z,9.46
2022-10-24T23:30:07.182Z,9.47
2022-10-24T23:32:37.858Z,9.44
2022-10-24T23:35:04.884Z,9.45
2022-10-24T23:37:44.096Z,9.37
2022-10-24T23:40:29.540Z,9.32
2022-10-24T23:42:56.300Z,9.22
2022-10-24T23:45:28.963Z,9.23
2022-10-24T23:48:26.434Z,9.18
2022-10-24T23:51:16.467Z,9.13
2022-10-24T23:53:50.458Z,9.13
2022-10-24T23:56:20.513Z,9.14
2022-10-24T23:58:47.272Z,9.03
